createdAt,value
2018-04-18T02:58:44.840Z,16.25
2018-04-18T03:01:14.092Z,15.33
2018-04-18T03:03:42.300Z,16.10
2018-04-18T03:06:11.633Z,16.73
2018-04-18T03:08:39.687Z,16.97
2018-04-18T03:11:08.086Z,17.40
2018-04-18T03:13:36.492Z,16.30
2018-04-18T03:16:07.297Z,18.07
2018-04-18T03:18:35.709Z,17.03
2018-04-18T03:21:04.160Z,16.10
2018-04-18T03:23:32.502Z,17.17
2018-04-18T03:26:00.748Z,16.60
2018-04-18T03:28:30.121Z,16.60
2018-04-18T03:30:59.395Z,16.50
2018-04-18T03:33:30.426Z,15.33
2018-04-18T03:35:58.925Z,16.33
2018-04-18T03:38:30.080Z,17.23
2018-04-18T03:40:58.500Z,17.50
2018-04-18T03:43:26.603Z,19.13
2018-04-18T03:45:56.707Z,17.23
2018-04-18T03:48:25.119Z,17.90
2018-04-18T03:50:58.766Z,19.13
2018-04-18T03:53:27.225Z,15.60
2018-04-18T03:55:55.645Z,17.67
2018-04-18T03:58:26.409Z,17.87
2018-04-18T04:00:55.777Z,18.63
2018-04-18T04:03:24.183Z,18.87
2018-04-18T04:05:53.022Z,17.70
2018-04-18T04:08:21.314Z,18.80
2018-04-18T04:10:50.380Z,17.57
2018-04-18T04:13:18.585Z,17.90
2018-04-18T04:15:47.610Z,18.70
2018-04-18T04:21:36.616Z,18.47
2018-04-18T04:24:16.594Z,18.30
2018-04-18T04:26:44.991Z,18.10
2018-04-18T04:29:13.574Z,17.77
2018-04-18T04:31:41.958Z,18.13
2018-04-18T04:34:10.738Z,17.90
2018-04-18T04:36:39.209Z,18.87
2018-04-18T04:39:07.589Z,17.80
2018-04-18T04:41:37.702Z,17.03
2018-04-18T04:44:06.213Z,17.47
2018-04-18T04:46:35.246Z,17.77
2018-04-18T04:49:03.458Z,18.20
2018-04-18T04:51:31.848Z,19.03
2018-04-18T04:54:00.539Z,18.40
2018-04-18T04:56:28.971Z,18.97
2018-04-18T04:58:57.538Z,17.23
2018-04-18T05:01:27.302Z,17.30
2018-04-18T05:03:56.966Z,17.97
2018-04-18T05:06:27.900Z,18.33
2018-04-18T05:08:56.067Z,19.27
2018-04-18T05:11:24.183Z,17.27
2018-04-18T05:13:53.383Z,18.03
2018-04-18T05:16:21.806Z,17.87
2018-04-18T05:18:50.240Z,17.57
2018-04-18T05:21:18.620Z,18.13
2018-04-18T05:23:46.786Z,17.43
2018-04-18T05:26:14.937Z,17.20
2018-04-18T05:28:43.341Z,17.60
2018-04-18T05:31:12.242Z,17.50
2018-04-18T05:33:41.486Z,17.53
2018-04-18T05:36:10.551Z,18.13
2018-04-18T05:38:39.053Z,16.97
2018-04-18T05:41:07.453Z,17.10
2018-04-18T05:43:35.845Z,17.63
2018-04-18T05:46:03.995Z,16.90
2018-04-18T05:48:32.390Z,18.37
2018-04-18T05:51:00.841Z,19.10
2018-04-18T05:53:29.374Z,20.57
2018-04-18T05:55:58.122Z,17.47
2018-04-18T05:58:26.535Z,19.60
2018-04-18T06:00:54.744Z,22.10
2018-04-18T06:03:23.345Z,18.60
2018-04-18T06:05:51.757Z,18.20
2018-04-18T06:08:21.137Z,20.70
2018-04-18T06:10:49.582Z,17.90
2018-04-18T06:13:17.737Z,20.40
2018-04-18T06:15:46.782Z,18.47
2018-04-18T06:18:15.262Z,19.63
2018-04-18T06:20:43.657Z,19.70
2018-04-18T06:23:12.048Z,20.50
2018-04-18T06:25:40.489Z,19.50
2018-04-18T06:28:08.909Z,19.63
2018-04-18T06:30:39.469Z,19.90
2018-04-18T06:33:10.889Z,20.83
2018-04-18T06:35:39.351Z,19.80
2018-04-18T06:38:08.071Z,20.60
2018-04-18T06:40:36.253Z,22.20
2018-04-18T06:43:04.722Z,20.40
2018-04-18T06:45:33.482Z,21.40
2018-04-18T06:48:01.914Z,21.07
2018-04-18T06:50:30.298Z,19.60
2018-04-18T06:52:58.718Z,20.53
2018-04-18T06:55:28.685Z,19.13
2018-04-18T06:57:57.793Z,20.63
2018-04-18T07:00:26.236Z,21.50
2018-04-18T07:02:54.636Z,23.17
2018-04-18T07:05:23.009Z,27.43
2018-04-18T07:07:51.401Z,26.70
2018-04-18T07:10:19.825Z,24.67
2018-04-18T07:12:48.003Z,20.73
2018-04-18T07:15:18.025Z,19.33
2018-04-18T07:17:46.639Z,21.13
2018-04-18T07:20:17.290Z,18.13
2018-04-18T07:22:45.717Z,19.93
2018-04-18T07:25:17.875Z,18.50
2018-04-18T07:27:46.254Z,19.10
2018-04-18T07:30:15.966Z,19.17
2018-04-18T07:32:44.344Z,17.90
2018-04-18T07:35:19.221Z,19.27
2018-04-18T07:37:47.619Z,19.50
2018-04-18T07:40:16.011Z,18.47
2018-04-18T07:42:44.405Z,19.27
2018-04-18T07:45:20.975Z,19.17
2018-04-18T07:47:49.466Z,17.20
2018-04-18T07:50:17.854Z,18.67
2018-04-18T07:52:46.238Z,18.07
2018-04-18T07:55:19.568Z,18.17
2018-04-18T07:57:47.970Z,17.00
2018-04-18T08:00:19.275Z,16.40
2018-04-18T08:02:47.860Z,18.43
2018-04-18T08:05:16.266Z,15.07
2018-04-18T08:07:44.646Z,14.70
2018-04-18T08:10:15.175Z,15.03
2018-04-18T08:12:43.445Z,14.00
2018-04-18T08:15:12.566Z,14.87
2018-04-18T08:17:41.144Z,15.50
2018-04-18T08:20:17.675Z,13.07
2018-04-18T08:22:45.853Z,13.73
2018-04-18T08:25:18.712Z,14.90
2018-04-18T08:27:55.493Z,13.47
2018-04-18T08:30:24.107Z,15.27
2018-04-18T08:32:52.494Z,15.80
2018-04-18T08:35:20.687Z,15.80
2018-04-18T08:37:50.048Z,15.13
2018-04-18T08:40:19.435Z,16.07
2018-04-18T08:42:47.614Z,15.30
2018-04-18T08:45:19.588Z,13.60
2018-04-18T08:47:47.986Z,11.63
2018-04-18T08:50:16.459Z,12.70
2018-04-18T08:52:44.631Z,13.10
2018-04-18T08:55:19.397Z,16.70
2018-04-18T08:57:47.825Z,13.93
2018-04-18T09:00:18.182Z,11.97
2018-04-18T09:02:46.546Z,12.80
2018-04-18T09:05:18.409Z,13.43
2018-04-18T09:07:46.838Z,13.20
2018-04-18T09:10:15.249Z,13.53
2018-04-18T09:12:43.665Z,13.07
2018-04-18T09:15:12.532Z,11.73
2018-04-18T09:17:40.956Z,11.20
2018-04-18T09:20:16.230Z,11.37
2018-04-18T09:22:44.634Z,12.03
2018-04-18T09:25:14.573Z,12.20
2018-04-18T09:27:42.965Z,13.13
2018-04-18T09:30:11.434Z,13.70
2018-04-18T09:32:39.837Z,12.80
2018-04-18T09:35:10.165Z,10.77
2018-04-18T09:37:38.325Z,10.90
2018-04-18T09:40:06.753Z,10.50
2018-04-18T09:42:35.143Z,9.57
2018-04-18T09:45:03.525Z,10.40
2018-04-18T09:47:31.962Z,11.00
2018-04-18T09:50:00.338Z,9.60
2018-04-18T09:52:28.738Z,10.73
2018-04-18T09:54:57.148Z,10.90
2018-04-18T09:57:25.555Z,12.10
2018-04-18T09:59:53.958Z,11.03
2018-04-18T10:02:27.717Z,12.13
2018-04-18T10:04:55.887Z,12.47
2018-04-18T10:07:24.269Z,12.70
2018-04-18T10:09:52.645Z,11.90
2018-04-18T10:12:21.498Z,11.80
2018-04-18T10:14:49.944Z,13.30
2018-04-18T10:17:18.341Z,14.00
2018-04-18T10:19:46.736Z,13.43
2018-04-18T10:22:15.128Z,13.27
2018-04-18T10:24:43.555Z,13.67
2018-04-18T10:27:11.943Z,16.00
2018-04-18T10:29:40.361Z,15.50
2018-04-18T10:32:08.757Z,13.07
2018-04-18T10:34:37.158Z,15.57
2018-04-18T10:37:05.133Z,15.40
2018-04-18T10:39:33.299Z,17.33
2018-04-18T10:42:01.691Z,14.00
2018-04-18T10:44:30.162Z,14.47
2018-04-18T10:46:58.561Z,14.03
2018-04-18T10:49:26.949Z,13.97
2018-04-18T10:51:55.098Z,14.50
2018-04-18T10:54:23.256Z,15.70
2018-04-18T10:56:51.630Z,13.83
2018-04-18T10:59:20.021Z,14.97
2018-04-18T11:01:48.399Z,13.00
2018-04-18T11:04:16.790Z,14.03
2018-04-18T11:06:45.174Z,13.17
2018-04-18T11:09:13.559Z,10.20
2018-04-18T11:11:41.947Z,11.83
2018-04-18T11:14:11.080Z,11.30
2018-04-18T11:16:39.449Z,9.87
2018-04-18T11:19:07.840Z,9.50
2018-04-18T11:21:36.290Z,9.33
2018-04-18T11:24:04.442Z,7.60
2018-04-18T11:26:32.813Z,7.33
2018-04-18T11:29:01.201Z,7.37
2018-04-18T11:31:29.591Z,7.00
2018-04-18T11:33:57.996Z,8.13
2018-04-18T11:36:26.371Z,8.80
2018-04-18T11:38:54.762Z,7.00
2018-04-18T11:41:23.137Z,6.30
2018-04-18T11:43:51.509Z,7.17
2018-04-18T11:46:19.891Z,5.60
2018-04-18T11:48:48.277Z,6.30
2018-04-18T11:51:16.651Z,5.60
2018-04-18T11:53:44.824Z,7.17
2018-04-18T11:56:13.237Z,5.20
2018-04-18T11:58:41.633Z,7.27
2018-04-18T12:01:10.033Z,5.97
2018-04-18T12:03:38.447Z,6.43
2018-04-18T12:06:06.837Z,6.90
2018-04-18T12:08:35.240Z,6.40
2018-04-18T12:11:03.650Z,7.13
2018-04-18T12:13:32.226Z,5.80
2018-04-18T12:16:00.608Z,6.50
2018-04-18T12:18:29.018Z,6.73
2018-04-18T12:20:57.176Z,6.87
2018-04-18T12:23:25.559Z,6.57
2018-04-18T12:25:53.947Z,5.37
2018-04-18T12:28:22.330Z,6.53
2018-04-18T12:30:50.706Z,6.43
2018-04-18T12:33:19.085Z,5.90
2018-04-18T12:35:47.485Z,5.80
2018-04-18T12:38:15.849Z,5.60
2018-04-18T12:40:44.025Z,5.77
2018-04-18T12:43:12.470Z,6.40
2018-04-18T12:45:40.856Z,7.53
2018-04-18T12:48:09.266Z,6.53
2018-04-18T12:50:37.633Z,5.87
2018-04-18T12:53:06.039Z,4.40
2018-04-18T12:55:34.431Z,5.60
2018-04-18T12:58:02.901Z,5.40
2018-04-18T13:00:31.294Z,6.10
2018-04-18T13:02:59.674Z,6.30
2018-04-18T13:05:28.111Z,5.87
2018-04-18T13:07:56.281Z,5.00
2018-04-18T13:10:24.665Z,5.30
2018-04-18T13:12:53.072Z,6.00
2018-04-18T13:15:21.476Z,4.87
2018-04-18T13:17:49.645Z,4.83
2018-04-18T13:20:18.024Z,4.97
2018-04-18T13:22:46.412Z,4.60
2018-04-18T13:25:16.576Z,4.70
2018-04-18T13:27:47.972Z,4.70
2018-04-18T13:30:16.370Z,4.40
2018-04-18T13:32:44.746Z,5.93
2018-04-18T13:35:13.518Z,5.20
2018-04-18T13:37:41.719Z,5.73
2018-04-18T13:40:09.873Z,5.93
2018-04-18T13:42:38.050Z,5.50
2018-04-18T13:45:13.108Z,5.40
2018-04-18T13:47:41.251Z,4.53
2018-04-18T13:50:19.183Z,5.20
2018-04-18T13:52:47.593Z,5.07
2018-04-18T13:55:19.502Z,4.07
2018-04-18T13:57:47.895Z,4.00
2018-04-18T14:00:16.285Z,4.73
2018-04-18T14:02:47.221Z,5.13
2018-04-18T14:05:15.603Z,4.90
2018-04-18T14:07:44.052Z,6.37
2018-04-18T14:10:14.993Z,3.80
2018-04-18T14:12:43.398Z,4.23
2018-04-18T14:15:15.319Z,5.13
2018-04-18T14:17:43.869Z,5.00
2018-04-18T14:20:15.643Z,4.60
2018-04-18T14:22:44.015Z,4.07
2018-04-18T14:25:12.390Z,5.00
2018-04-18T14:27:40.771Z,5.73
2018-04-18T14:30:11.339Z,5.20
2018-04-18T14:32:39.721Z,5.17
2018-04-18T14:35:15.368Z,4.33
2018-04-18T14:37:43.785Z,4.97
2018-04-18T14:40:12.366Z,4.60
2018-04-18T14:42:40.794Z,4.70
2018-04-18T14:45:12.084Z,5.20
2018-04-18T14:47:40.480Z,3.20
2018-04-18T14:50:14.920Z,4.13
2018-04-18T14:52:44.212Z,5.27
2018-04-18T14:55:16.973Z,4.20
2018-04-18T14:57:45.349Z,4.47
2018-04-18T15:00:14.229Z,4.37
2018-04-18T15:02:42.604Z,4.40
2018-04-18T15:05:17.438Z,4.60
2018-04-18T15:07:45.970Z,4.80
2018-04-18T15:10:18.140Z,4.37
2018-04-18T15:12:46.535Z,5.23
2018-04-18T15:15:14.919Z,4.13
2018-04-18T15:17:43.301Z,5.93
2018-04-18T15:20:14.865Z,3.80
2018-04-18T15:22:43.314Z,6.37
2018-04-18T15:25:17.347Z,4.83
2018-04-18T15:27:45.727Z,5.77
2018-04-18T15:30:17.150Z,4.80
2018-04-18T15:32:45.565Z,4.70
2018-04-18T15:35:14.785Z,5.77
2018-04-18T15:37:43.184Z,6.70
2018-04-18T15:40:18.077Z,5.63
2018-04-18T15:42:46.464Z,4.30
2018-04-18T15:45:20.987Z,4.80
2018-04-18T15:47:49.373Z,5.70
2018-04-18T15:50:17.747Z,4.60
2018-04-18T15:52:46.130Z,3.90
2018-04-18T15:55:17.626Z,4.33
2018-04-18T15:57:46.048Z,4.17
2018-04-18T16:00:14.948Z,3.93
2018-04-18T16:02:43.670Z,4.60
2018-04-18T16:05:15.750Z,4.13
2018-04-18T16:07:44.146Z,3.60
2018-04-18T16:10:13.955Z,4.17
2018-04-18T16:12:42.320Z,3.60
2018-04-18T16:15:12.009Z,4.00
2018-04-18T16:17:41.190Z,3.43
2018-04-18T16:20:11.510Z,4.13
2018-04-18T16:22:40.564Z,4.57
2018-04-18T16:25:15.909Z,3.60
2018-04-18T16:27:44.308Z,3.43
2018-04-18T16:33:22.903Z,4.00
2018-04-18T16:35:51.310Z,3.70
2018-04-18T16:38:19.692Z,3.30
2018-04-18T16:40:48.099Z,3.50
2018-04-18T16:43:16.578Z,3.83
2018-04-18T16:45:44.951Z,4.20
2018-04-18T16:48:13.100Z,4.50
2018-04-18T16:50:41.482Z,4.33
2018-04-18T16:53:09.884Z,4.10
2018-04-18T16:55:38.262Z,4.73
2018-04-18T16:58:07.886Z,3.50
2018-04-18T17:00:36.272Z,4.43
2018-04-18T17:03:04.341Z,5.00
2018-04-18T17:05:32.813Z,4.00
2018-04-18T17:08:01.207Z,3.43
2018-04-18T17:10:29.615Z,5.33
2018-04-18T17:12:58.034Z,4.43
2018-04-18T17:15:26.417Z,4.20
2018-04-18T17:17:54.794Z,3.97
2018-04-18T17:20:23.334Z,4.70
2018-04-18T17:22:51.791Z,5.30
2018-04-18T17:25:20.169Z,4.00
2018-04-18T17:27:48.336Z,5.00
2018-04-18T17:30:16.714Z,4.27
2018-04-18T17:32:45.095Z,4.70
2018-04-18T17:35:16.722Z,4.43
2018-04-18T17:37:45.110Z,4.60
2018-04-18T17:40:18.437Z,4.60
2018-04-18T17:42:46.883Z,4.53
2018-04-18T17:45:15.926Z,4.53
2018-04-18T17:47:45.175Z,4.33
2018-04-18T17:50:17.011Z,5.43
2018-04-18T17:52:45.381Z,5.03
2018-04-18T17:55:18.745Z,5.67
2018-04-18T17:57:47.189Z,5.07
2018-04-18T18:00:18.207Z,4.40
2018-04-18T18:02:46.620Z,5.23
2018-04-18T18:05:15.092Z,5.27
2018-04-18T18:07:43.473Z,5.87
2018-04-18T18:10:19.251Z,6.30
2018-04-18T18:12:48.527Z,5.53
2018-04-18T18:15:19.288Z,5.53
2018-04-18T18:17:47.751Z,5.00
2018-04-18T18:20:19.560Z,4.93
2018-04-18T18:22:47.941Z,4.80
2018-04-18T18:25:18.208Z,5.50
2018-04-18T18:27:46.508Z,5.00
2018-04-18T18:30:17.974Z,5.70
2018-04-18T18:32:46.357Z,5.67
2018-04-18T18:35:20.897Z,5.17
2018-04-18T18:37:49.304Z,5.03
2018-04-18T18:40:19.157Z,4.93
2018-04-18T18:42:47.543Z,4.83
2018-04-18T18:45:21.769Z,4.90
2018-04-18T18:47:50.162Z,5.00
2018-04-18T18:50:19.308Z,4.60
2018-04-18T18:52:47.712Z,4.43
2018-04-18T18:55:18.877Z,4.23
2018-04-18T18:57:47.287Z,4.97
2018-04-18T19:00:17.944Z,4.90
2018-04-18T19:02:46.525Z,5.43
2018-04-18T19:05:17.924Z,5.53
2018-04-18T19:07:46.309Z,5.40
2018-04-18T19:10:19.093Z,4.17
2018-04-18T19:12:47.496Z,4.13
2018-04-18T19:15:18.925Z,4.40
2018-04-18T19:17:47.334Z,5.30
2018-04-18T19:20:23.327Z,4.57
2018-04-18T19:22:51.793Z,5.47
2018-04-18T19:25:20.181Z,4.70
2018-04-18T19:27:48.579Z,4.87
2018-04-18T19:30:18.270Z,4.67
2018-04-18T19:32:46.670Z,4.30
2018-04-18T19:35:18.689Z,4.60
2018-04-18T19:37:47.102Z,5.70
2018-04-18T19:40:18.452Z,5.60
2018-04-18T19:42:46.868Z,5.30
2018-04-18T19:45:17.871Z,4.77
2018-04-18T19:47:46.286Z,5.03
2018-04-18T19:50:18.050Z,5.13
2018-04-18T19:52:46.452Z,4.50
2018-04-18T19:55:17.904Z,5.53
2018-04-18T19:57:46.314Z,5.93
2018-04-18T20:00:18.305Z,5.57
2018-04-18T20:02:46.710Z,5.27
2018-04-18T20:05:18.497Z,5.63
2018-04-18T20:07:46.938Z,5.33
2018-04-18T20:10:19.239Z,6.60
2018-04-18T20:12:47.621Z,5.50
2018-04-18T20:15:18.931Z,6.20
2018-04-18T20:17:47.368Z,5.70
2018-04-18T20:20:18.582Z,5.20
2018-04-18T20:22:46.998Z,6.50
2018-04-18T20:25:17.939Z,6.23
2018-04-18T20:27:46.350Z,5.60
2018-04-18T20:30:14.784Z,6.40
2018-04-18T20:32:43.369Z,5.07
2018-04-18T20:35:17.912Z,5.83
2018-04-18T20:37:46.828Z,5.33
2018-04-18T20:40:17.814Z,6.10
2018-04-18T20:42:57.238Z,4.87
2018-04-18T20:45:25.619Z,5.70
2018-04-18T20:47:53.994Z,5.30
2018-04-18T20:50:22.548Z,5.57
2018-04-18T20:52:51.002Z,5.20
2018-04-18T20:55:22.183Z,6.10
2018-04-18T20:57:50.770Z,5.47
2018-04-18T21:00:19.312Z,5.20
2018-04-18T21:02:47.699Z,5.90
2018-04-18T21:05:17.657Z,5.60
2018-04-18T21:07:46.063Z,6.00
2018-04-18T21:10:17.620Z,6.20
2018-04-18T21:12:46.003Z,6.50
2018-04-18T21:15:16.553Z,6.40
2018-04-18T21:17:44.929Z,5.23
2018-04-18T21:20:16.582Z,5.30
2018-04-18T21:22:44.985Z,6.30
2018-04-18T21:25:14.057Z,6.20
2018-04-18T21:27:42.536Z,5.63
2018-04-18T21:30:15.796Z,6.60
2018-04-18T21:32:44.207Z,6.33
2018-04-18T21:35:12.594Z,6.77
2018-04-18T21:37:40.989Z,6.40
2018-04-18T21:40:18.173Z,6.53
2018-04-18T21:42:46.321Z,5.80
2018-04-18T21:45:18.736Z,6.67
2018-04-18T21:47:47.124Z,6.60
2018-04-18T21:50:18.734Z,5.97
2018-04-18T21:52:47.105Z,6.00
2018-04-18T21:55:18.585Z,6.47
2018-04-18T21:57:46.975Z,6.20
2018-04-18T22:00:18.733Z,5.60
2018-04-18T22:02:47.970Z,5.20
2018-04-18T22:05:30.089Z,5.70
2018-04-18T22:07:58.390Z,5.27
2018-04-18T22:10:26.914Z,5.57
2018-04-18T22:12:55.280Z,4.57
2018-04-18T22:15:24.523Z,6.17
2018-04-18T22:17:52.912Z,5.77
2018-04-18T22:20:21.384Z,5.60
2018-04-18T22:22:49.823Z,5.60
2018-04-18T22:25:18.535Z,5.40
2018-04-18T22:27:46.964Z,5.47
2018-04-18T22:30:17.411Z,7.07
2018-04-18T22:32:45.832Z,6.53
2018-04-18T22:35:17.526Z,6.20
2018-04-18T22:37:45.903Z,5.73
2018-04-18T22:40:19.019Z,5.93
2018-04-18T22:42:47.398Z,5.57
2018-04-18T22:45:17.847Z,6.17
2018-04-18T22:47:46.223Z,5.80
2018-04-18T22:50:18.560Z,6.20
2018-04-18T22:52:46.695Z,7.53
2018-04-18T22:55:18.678Z,5.30
2018-04-18T22:57:47.053Z,5.83
2018-04-18T23:00:21.948Z,6.33
2018-04-18T23:02:50.532Z,6.13
2018-04-18T23:05:20.190Z,5.83
2018-04-18T23:07:48.565Z,5.90
2018-04-18T23:10:18.216Z,6.10
2018-04-18T23:12:46.621Z,5.70
2018-04-18T23:15:16.901Z,5.77
2018-04-18T23:17:45.276Z,4.27
2018-04-18T23:20:18.641Z,5.30
2018-04-18T23:22:47.188Z,5.83
2018-04-18T23:25:18.295Z,6.77
2018-04-18T23:27:46.878Z,6.30
2018-04-18T23:30:15.285Z,5.90
2018-04-18T23:32:43.685Z,6.00
2018-04-18T23:35:17.833Z,5.80
2018-04-18T23:37:46.417Z,4.60
2018-04-18T23:40:14.806Z,6.07
2018-04-18T23:42:43.247Z,5.03
2018-04-18T23:45:18.144Z,4.83
2018-04-18T23:47:46.554Z,5.67
2018-04-18T23:50:18.377Z,5.40
2018-04-18T23:52:46.545Z,5.40
2018-04-18T23:55:14.916Z,5.30
2018-04-18T23:57:43.321Z,6.57
